Time;durP1;ratioP1;P1;durP2;ratioP2;P2;SDS_P1;SDS_P2;PMS_P1;PMS_P2;Temp;Humidity;BMP_temperature;BMP_pressure;BME280_temperature;BME280_humidity;BME280_pressure;Samples;Min_cycle;Max_cycle;Signal;HPM_P1;HPM_P2
2022/05/30 00:01:23;;;;;;;8.83;1.80;;;9.50;1.00;;;;;;5073456;28;20216;-58
2022/05/30 00:03:50;;;;;;;12.97;1.90;;;9.40;1.00;;;;;;5075159;28;20416;-60
2022/05/30 00:06:19;;;;;;;3.77;1.30;;;9.40;1.00;;;;;;5074574;28;20209;-60
2022/05/30 00:08:46;;;;;;;6.10;1.87;;;9.30;1.00;;;;;;5074578;28;20297;-60
2022/05/30 00:11:14;;;;;;;9.30;2.07;;;9.30;3.30;;;;;;5074979;28;20269;-60
2022/05/30 00:13:41;;;;;;;6.83;1.60;;;9.30;7.10;;;;;;5074813;28;20227;-59
2022/05/30 00:16:11;;;;;;;2.47;1.47;;;9.30;9.30;;;;;;5074382;28;20568;-60
2022/05/30 00:18:39;;;;;;;3.90;1.70;;;9.30;3.70;;;;;;5074672;28;20732;-60
2022/05/30 00:21:07;;;;;;;9.73;1.80;;;9.30;1.00;;;;;;5074303;28;20212;-60
2022/05/30 00:23:34;;;;;;;4.50;1.70;;;9.40;1.00;;;;;;5074704;28;20283;-60
2022/05/30 00:26:01;;;;;;;4.13;1.43;;;9.30;1.00;;;;;;5074075;28;20208;-60
2022/05/30 00:28:27;;;;;;;4.73;1.90;;;9.30;3.60;;;;;;5074523;28;20229;-60
2022/05/30 00:30:54;;;;;;;4.53;1.47;;;9.20;5.10;;;;;;5074274;28;20291;-60
2022/05/30 00:33:21;;;;;;;5.47;1.83;;;9.20;3.00;;;;;;5074315;28;20230;-60
2022/05/30 00:35:49;;;;;;;5.27;2.03;;;9.10;7.00;;;;;;5073941;28;20211;-60
2022/05/30 00:38:16;;;;;;;8.83;1.70;;;9.20;11.70;;;;;;5074159;28;20210;-59
2022/05/30 00:40:43;;;;;;;5.27;1.60;;;9.20;13.70;;;;;;5073934;28;20203;-60
2022/05/30 00:43:25;;;;;;;4.27;1.57;;;9.20;15.20;;;;;;5074296;28;20235;-60
2022/05/30 00:45:53;;;;;;;7.33;1.87;;;9.20;16.10;;;;;;5073569;28;20207;-60
2022/05/30 00:48:24;;;;;;;6.23;1.80;;;9.20;16.10;;;;;;5073438;28;20265;-61
2022/05/30 00:50:55;;;;;;;7.40;1.60;;;9.20;16.80;;;;;;5073673;28;20253;-60
2022/05/30 00:53:22;;;;;;;3.90;1.63;;;9.30;19.90;;;;;;5073854;28;20309;-60
2022/05/30 00:55:50;;;;;;;5.30;1.83;;;9.40;24.90;;;;;;5073958;28;20253;-60
2022/05/30 00:58:19;;;;;;;2.73;1.67;;;9.40;33.50;;;;;;5073549;28;20213;-60
2022/05/30 01:00:47;;;;;;;8.53;1.67;;;9.30;29.40;;;;;;5073778;28;20886;-60
2022/05/30 01:08:43;;;;;;;5.10;1.90;;;9.30;30.40;;;;;;5073527;28;20600;-61
2022/05/30 01:11:10;;;;;;;4.33;1.77;;;9.30;37.30;;;;;;5073427;28;20206;-59
2022/05/30 01:13:38;;;;;;;8.17;2.20;;;9.20;40.50;;;;;;5072320;28;20731;-60
2022/05/30 01:16:05;;;;;;;3.80;1.47;;;9.20;34.30;;;;;;5073043;28;20304;-60
2022/05/30 01:18:37;;;;;;;4.80;1.50;;;9.20;29.40;;;;;;5073245;28;20924;-60
2022/05/30 01:21:38;;;;;;;7.23;1.90;;;9.20;27.80;;;;;;5073526;28;20207;-60
2022/05/30 01:24:19;;;;;;;5.20;2.20;;;9.30;29.00;;;;;;5073399;28;20255;-61
2022/05/30 01:26:57;;;;;;;5.33;1.60;;;9.30;27.20;;;;;;5073090;28;20202;-60
2022/05/30 01:29:30;;;;;;;9.60;1.50;;;9.30;29.60;;;;;;5073084;28;20228;-60
2022/05/30 01:31:57;;;;;;;9.70;2.10;;;9.30;34.40;;;;;;5073164;28;20216;-60
2022/05/30 01:34:25;;;;;;;8.17;2.10;;;9.30;35.30;;;;;;5072957;28;20241;-60
2022/05/30 01:36:52;;;;;;;5.10;1.60;;;9.20;32.90;;;;;;5072944;28;20255;-60
2022/05/30 01:39:19;;;;;;;11.37;1.63;;;9.20;30.00;;;;;;5072600;28;20206;-60
2022/05/30 01:41:46;;;;;;;6.77;1.60;;;9.20;31.20;;;;;;5072963;28;20207;-60
2022/05/30 01:44:14;;;;;;;4.37;1.60;;;9.30;31.20;;;;;;5072758;28;20256;-60
2022/05/30 01:46:42;;;;;;;9.80;2.00;;;9.30;31.20;;;;;;5072338;28;20581;-60
2022/05/30 01:49:10;;;;;;;6.17;1.60;;;9.30;32.40;;;;;;5072914;28;20802;-60
2022/05/30 01:51:36;;;;;;;6.93;2.10;;;9.30;31.30;;;;;;5072868;28;20572;-60
2022/05/30 01:54:03;;;;;;;7.80;1.83;;;9.30;28.90;;;;;;5072730;28;20788;-56
2022/05/30 01:56:30;;;;;;;7.33;1.80;;;9.30;29.50;;;;;;5072171;28;20201;-61
2022/05/30 01:58:56;;;;;;;6.67;1.60;;;9.30;29.70;;;;;;5072645;28;20726;-60
2022/05/30 02:01:26;;;;;;;5.87;1.77;;;9.30;31.90;;;;;;5072255;28;20220;-60
2022/05/30 02:03:55;;;;;;;6.67;1.57;;;9.20;27.80;;;;;;5072885;28;20318;-60
2022/05/30 02:06:23;;;;;;;8.43;2.20;;;9.30;25.90;;;;;;5072178;28;20644;-59
2022/05/30 02:08:50;;;;;;;6.40;2.23;;;9.20;28.30;;;;;;5072304;28;20281;-60
2022/05/30 02:11:18;;;;;;;10.37;1.93;;;9.20;34.70;;;;;;5072364;28;20214;-61
2022/05/30 02:13:46;;;;;;;7.63;2.13;;;9.20;38.70;;;;;;5072218;28;20642;-60
2022/05/30 02:19:00;;;;;;;9.20;1.93;;;9.10;40.30;;;;;;5072380;28;20289;-60
2022/05/30 02:21:27;;;;;;;10.37;1.90;;;9.20;27.80;;;;;;5072248;28;20263;-59
2022/05/30 02:23:54;;;;;;;5.83;1.77;;;9.10;26.40;;;;;;5072091;28;20230;-59
2022/05/30 02:26:21;;;;;;;4.47;1.83;;;9.10;25.70;;;;;;5071530;28;20344;-60
2022/05/30 02:28:48;;;;;;;4.70;1.90;;;9.10;26.70;;;;;;5072251;28;20552;-60
2022/05/30 02:31:14;;;;;;;7.83;2.00;;;9.10;25.10;;;;;;5072038;28;20685;-59
2022/05/30 02:36:44;;;;;;;10.00;2.10;;;9.20;29.60;;;;;;5071726;28;20200;-60
2022/05/30 02:39:12;;;;;;;7.47;1.77;;;9.20;31.00;;;;;;5072158;28;20208;-59
2022/05/30 02:41:39;;;;;;;5.33;1.80;;;9.20;29.80;;;;;;5072209;28;20214;-59
2022/05/30 02:44:06;;;;;;;5.57;1.97;;;9.20;30.50;;;;;;5071969;28;20299;-60
2022/05/30 02:46:32;;;;;;;10.33;2.17;;;9.20;35.20;;;;;;5071699;28;20211;-57
2022/05/30 02:48:59;;;;;;;9.57;1.77;;;9.10;39.40;;;;;;5071743;28;20235;-60
2022/05/30 02:51:27;;;;;;;3.80;1.73;;;9.10;45.40;;;;;;5072074;28;20295;-60
2022/05/30 02:53:54;;;;;;;13.77;2.40;;;9.10;50.60;;;;;;5071925;28;20231;-60
2022/05/30 02:56:21;;;;;;;4.97;2.20;;;9.20;49.00;;;;;;5071658;28;20741;-59
2022/05/30 02:58:48;;;;;;;5.10;1.93;;;9.10;48.30;;;;;;5071578;28;20673;-60
2022/05/30 03:01:15;;;;;;;9.00;2.23;;;9.10;49.70;;;;;;5071890;28;20208;-59
2022/05/30 03:03:42;;;;;;;11.43;2.33;;;9.10;43.40;;;;;;5071318;28;20222;-60
2022/05/30 03:06:10;;;;;;;10.33;2.40;;;9.10;41.90;;;;;;5071397;28;20652;-59
2022/05/30 03:08:38;;;;;;;6.07;1.80;;;9.00;42.10;;;;;;5071958;28;20212;-60
2022/05/30 03:11:04;;;;;;;7.60;2.60;;;8.90;50.20;;;;;;5071719;28;20279;-60
2022/05/30 03:13:31;;;;;;;12.37;2.20;;;8.90;58.10;;;;;;5071529;28;20226;-60
2022/05/30 03:15:58;;;;;;;5.57;2.10;;;8.90;73.80;;;;;;5071199;28;20218;-60
2022/05/30 03:18:25;;;;;;;7.30;2.33;;;8.90;74.40;;;;;;5071128;28;20211;-60
2022/05/30 03:20:52;;;;;;;8.90;2.67;;;8.80;77.10;;;;;;5071710;28;20206;-60
2022/05/30 03:23:19;;;;;;;7.20;2.23;;;8.80;81.90;;;;;;5071713;28;20284;-60
2022/05/30 03:25:47;;;;;;;7.40;2.40;;;8.80;83.20;;;;;;5071521;28;20209;-58
2022/05/30 03:28:14;;;;;;;4.37;2.20;;;8.80;87.50;;;;;;5071319;28;20207;-60
2022/05/30 03:30:41;;;;;;;7.97;3.30;;;8.80;90.60;;;;;;5071274;28;20283;-60
2022/05/30 03:33:10;;;;;;;7.57;2.57;;;8.80;94.00;;;;;;5071385;28;20914;-60
2022/05/30 03:35:38;;;;;;;10.97;2.90;;;8.80;98.20;;;;;;5072332;28;20240;-60
2022/05/30 03:38:06;;;;;;;9.57;2.90;;;8.80;99.90;;;;;;5075304;28;20260;-60
2022/05/30 03:40:36;;;;;;;7.83;2.63;;;8.80;99.90;;;;;;5075532;28;20259;-60
2022/05/30 03:43:07;;;;;;;9.13;2.93;;;8.80;99.90;;;;;;5075254;28;20228;-60
2022/05/30 03:45:34;;;;;;;7.90;2.20;;;8.90;99.90;;;;;;5075459;28;20190;-60
2022/05/30 03:48:01;;;;;;;10.33;2.80;;;8.90;99.90;;;;;;5074628;28;20688;-60
2022/05/30 03:50:27;;;;;;;12.33;2.87;;;8.80;99.90;;;;;;5075106;28;20253;-60
2022/05/30 03:52:54;;;;;;;6.47;2.50;;;8.80;99.90;;;;;;5074978;28;20235;-59
2022/05/30 03:55:23;;;;;;;9.63;2.90;;;8.80;99.90;;;;;;5075106;28;20205;-60
2022/05/30 03:57:51;;;;;;;8.77;2.70;;;8.80;99.90;;;;;;5074241;28;20733;-61
2022/05/30 04:00:22;;;;;;;7.43;2.43;;;8.90;99.90;;;;;;5074870;28;20665;-60
2022/05/30 04:02:49;;;;;;;7.53;2.80;;;8.90;99.90;;;;;;5074800;28;20226;-59
2022/05/30 04:05:15;;;;;;;11.77;3.00;;;8.90;99.90;;;;;;5074909;28;20579;-60
2022/05/30 04:07:42;;;;;;;6.73;2.57;;;8.80;99.90;;;;;;5074344;28;20264;-60
2022/05/30 04:10:09;;;;;;;8.30;2.57;;;8.70;99.90;;;;;;5074823;28;20757;-61
2022/05/30 04:12:37;;;;;;;10.23;2.50;;;8.60;99.90;;;;;;5074196;28;20256;-60
2022/05/30 04:15:07;;;;;;;6.60;2.07;;;8.60;99.90;;;;;;5074711;28;20557;-60
2022/05/30 04:17:36;;;;;;;13.53;2.73;;;8.70;99.90;;;;;;5074758;28;20211;-60
2022/05/30 04:20:04;;;;;;;9.93;2.73;;;8.70;99.90;;;;;;5074269;28;20202;-60
2022/05/30 04:22:32;;;;;;;4.63;2.07;;;8.80;99.90;;;;;;5074501;28;20617;-60
2022/05/30 04:24:59;;;;;;;7.87;2.17;;;8.80;99.90;;;;;;5074232;28;20206;-59
2022/05/30 04:27:25;;;;;;;15.07;2.47;;;8.80;99.90;;;;;;5074268;28;20232;-61
2022/05/30 04:29:52;;;;;;;9.77;2.50;;;8.80;99.90;;;;;;5074370;28;20595;-61
2022/05/30 04:32:19;;;;;;;9.30;2.13;;;8.80;99.90;;;;;;5074555;28;20254;-60
2022/05/30 04:34:47;;;;;;;10.33;2.57;;;8.70;94.90;;;;;;5074290;28;20208;-61
2022/05/30 04:37:14;;;;;;;7.33;2.30;;;8.70;95.80;;;;;;5074038;28;20279;-61
2022/05/30 04:39:41;;;;;;;7.27;2.23;;;8.80;97.30;;;;;;5073962;28;20759;-61
2022/05/30 04:42:08;;;;;;;10.27;2.20;;;8.80;96.40;;;;;;5074296;28;20235;-61
2022/05/30 04:44:36;;;;;;;8.97;2.40;;;8.90;96.40;;;;;;5074039;28;20222;-61
2022/05/30 04:47:03;;;;;;;10.13;2.90;;;8.90;95.90;;;;;;5072273;28;20247;-61
2022/05/30 04:49:30;;;;;;;6.63;2.60;;;9.00;90.80;;;;;;5073080;28;20207;-61
2022/05/30 04:51:58;;;;;;;5.47;2.37;;;9.00;86.40;;;;;;5073261;28;20274;-61
2022/05/30 04:54:25;;;;;;;3.70;2.00;;;9.00;90.40;;;;;;5073780;28;20226;-61
2022/05/30 04:56:52;;;;;;;8.70;2.90;;;9.00;84.10;;;;;;5073282;28;20207;-60
2022/05/30 04:59:19;;;;;;;8.77;2.60;;;9.10;65.70;;;;;;5073738;28;20296;-61
2022/05/30 05:01:46;;;;;;;9.57;3.33;;;9.10;57.20;;;;;;5073413;28;20209;-61
2022/05/30 05:04:14;;;;;;;13.00;3.10;;;9.10;56.80;;;;;;5073748;28;20234;-61
2022/05/30 05:06:44;;;;;;;5.80;2.20;;;9.20;49.60;;;;;;5072697;28;20240;-61
2022/05/30 05:09:28;;;;;;;7.63;3.23;;;9.20;63.40;;;;;;5073661;28;20210;-61
2022/05/30 05:11:55;;;;;;;9.03;2.83;;;9.20;42.50;;;;;;5072977;28;20200;-61
2022/05/30 05:14:22;;;;;;;7.83;2.40;;;9.20;37.90;;;;;;5073414;28;20277;-61
2022/05/30 05:16:48;;;;;;;7.10;2.27;;;9.40;41.50;;;;;;5073185;28;20205;-61
2022/05/30 05:19:15;;;;;;;6.37;2.17;;;9.50;47.60;;;;;;5072719;28;20210;-61
2022/05/30 05:21:46;;;;;;;5.83;2.40;;;9.60;43.40;;;;;;5073317;28;20670;-61
2022/05/30 05:24:15;;;;;;;9.97;2.73;;;9.70;29.90;;;;;;5072726;28;20721;-61
2022/05/30 05:26:48;;;;;;;9.60;2.50;;;9.70;3.10;;;;;;5072331;28;20262;-62
2022/05/30 05:29:16;;;;;;;8.37;3.50;;;9.70;4.40;;;;;;5072323;28;20200;-62
2022/05/30 05:31:44;;;;;;;9.30;2.63;;;9.70;13.80;;;;;;5072845;28;20232;-63
2022/05/30 05:34:12;;;;;;;7.67;2.27;;;9.60;1.00;;;;;;5072704;28;20284;-63
2022/05/30 05:36:41;;;;;;;10.40;2.00;;;9.70;1.00;;;;;;5072593;28;20207;-63
2022/05/30 05:39:09;;;;;;;8.60;2.43;;;9.70;1.00;;;;;;5072513;28;20207;-63
2022/05/30 05:41:36;;;;;;;10.10;2.73;;;9.60;1.00;;;;;;5072817;28;20249;-62
2022/05/30 05:44:04;;;;;;;8.03;2.37;;;9.70;1.00;;;;;;5072686;28;20227;-62
2022/05/30 05:46:32;;;;;;;10.37;2.43;;;9.70;1.00;;;;;;5072072;28;20916;-62
2022/05/30 05:49:00;;;;;;;6.50;1.90;;;9.70;1.00;;;;;;5072832;28;20205;-63
2022/05/30 05:51:27;;;;;;;8.80;2.40;;;9.80;1.00;;;;;;5072397;28;20670;-63
2022/05/30 05:53:54;;;;;;;15.37;2.53;;;9.90;1.00;;;;;;5072856;28;20232;-61
2022/05/30 05:56:23;;;;;;;8.20;2.30;;;9.80;1.00;;;;;;5071975;28;20281;-62
2022/05/30 05:58:50;;;;;;;6.77;2.30;;;9.80;1.00;;;;;;5071975;28;20201;-61
2022/05/30 06:01:20;;;;;;;6.93;2.50;;;10.00;1.00;;;;;;5072350;28;20201;-60
2022/05/30 06:03:47;;;;;;;8.60;2.60;;;10.10;1.00;;;;;;5063328;28;20229;-62
2022/05/30 06:06:14;;;;;;;12.43;3.10;;;10.20;1.00;;;;;;5064818;28;20235;-62
2022/05/30 06:08:41;;;;;;;10.97;3.13;;;10.20;1.00;;;;;;5051697;28;20235;-62
2022/05/30 06:11:09;;;;;;;7.33;3.27;;;10.20;1.00;;;;;;5051680;28;20225;-61
2022/05/30 06:13:37;;;;;;;13.43;3.37;;;10.30;1.00;;;;;;5051408;28;20252;-62
2022/05/30 06:16:06;;;;;;;9.80;3.37;;;10.40;1.00;;;;;;5050740;28;20248;-62
2022/05/30 06:18:34;;;;;;;7.97;3.07;;;10.50;1.00;;;;;;5053856;28;20307;-62
2022/05/30 06:21:02;;;;;;;7.40;2.83;;;10.50;1.00;;;;;;5071694;28;20205;-62
2022/05/30 06:23:29;;;;;;;6.57;2.87;;;10.60;1.00;;;;;;5071608;28;20232;-61
2022/05/30 06:25:56;;;;;;;10.80;3.10;;;10.70;1.00;;;;;;5070366;28;20205;-61
2022/05/30 06:28:23;;;;;;;8.43;2.70;;;10.70;1.00;;;;;;5071983;28;20208;-61
2022/05/30 06:30:49;;;;;;;7.40;2.93;;;10.60;1.00;;;;;;5070826;28;20294;-61
2022/05/30 06:33:19;;;;;;;8.03;2.57;;;10.80;1.00;;;;;;5071561;28;20718;-61
2022/05/30 06:35:47;;;;;;;7.70;2.47;;;10.90;1.00;;;;;;5070938;28;20251;-58
2022/05/30 06:38:14;;;;;;;8.17;2.97;;;11.00;1.00;;;;;;5070756;28;20227;-61
2022/05/30 06:40:42;;;;;;;7.67;2.70;;;11.00;1.00;;;;;;5070819;28;20209;-63
2022/05/30 06:43:09;;;;;;;10.80;2.03;;;11.10;1.00;;;;;;5071612;28;20233;-63
2022/05/30 06:45:36;;;;;;;8.50;2.50;;;11.00;1.00;;;;;;5071436;28;20209;-63
2022/05/30 06:48:03;;;;;;;5.20;2.60;;;11.10;1.00;;;;;;5071151;28;20209;-61
2022/05/30 06:50:30;;;;;;;7.03;2.97;;;11.00;1.00;;;;;;5071118;28;20698;-60
2022/05/30 06:52:58;;;;;;;7.73;2.40;;;10.90;32.40;;;;;;5070653;28;20713;-59
2022/05/30 06:55:25;;;;;;;10.47;2.60;;;11.00;99.90;;;;;;5071274;28;20239;-61
2022/05/30 07:00:36;;;;;;;4.87;2.53;;;10.90;1.00;;;;;;5072252;28;20196;-61
2022/05/30 07:03:03;;;;;;;6.07;2.80;;;11.00;1.00;;;;;;5071045;28;20221;-61
2022/05/30 07:05:29;;;;;;;8.17;2.20;;;11.10;1.00;;;;;;5070547;28;20208;-61
2022/05/30 07:07:58;;;;;;;9.10;3.10;;;11.30;99.90;;;;;;5071114;28;20271;-61
2022/05/30 07:10:26;;;;;;;9.27;3.00;;;11.60;1.00;;;;;;5071321;28;20282;-61
2022/05/30 07:12:53;;;;;;;7.30;3.23;;;11.70;99.90;;;;;;5075164;28;20286;-61
2022/05/30 07:15:20;;;;;;;9.60;3.47;;;11.90;99.90;;;;;;5074754;28;20213;-61
2022/05/30 07:17:46;;;;;;;7.93;3.50;;;11.90;1.00;;;;;;5074943;28;20624;-63
2022/05/30 07:20:14;;;;;;;10.73;3.83;;;12.00;1.00;;;;;;5074699;28;20741;-63
2022/05/30 07:22:41;;;;;;;13.83;4.30;;;12.10;1.00;;;;;;5075032;28;20224;-63
2022/05/30 07:25:10;;;;;;;11.53;5.13;;;12.30;1.00;;;;;;5074662;28;20319;-63
2022/05/30 07:27:36;;;;;;;10.57;5.30;;;12.30;1.00;;;;;;5073760;28;20208;-63
2022/05/30 07:30:05;;;;;;;10.60;4.80;;;12.30;99.90;;;;;;5074875;28;20628;-62
2022/05/30 07:32:32;;;;;;;11.77;5.13;;;12.20;99.90;;;;;;5073704;28;20228;-58
2022/05/30 07:35:00;;;;;;;9.43;3.77;;;12.20;99.90;;;;;;5063750;28;20204;-59
2022/05/30 07:37:27;;;;;;;8.37;3.13;;;12.20;99.90;;;;;;5074233;28;20205;-59
2022/05/30 07:39:53;;;;;;;6.73;2.50;;;12.10;99.90;;;;;;5074746;28;20207;-59
2022/05/30 07:42:21;;;;;;;9.67;2.67;;;12.20;99.90;;;;;;5074626;28;20228;-59
2022/05/30 07:44:48;;;;;;;8.93;3.03;;;12.10;99.90;;;;;;5074272;28;20334;-59
2022/05/30 07:47:17;;;;;;;10.70;2.73;;;12.00;99.90;;;;;;5065869;28;20271;-58
2022/05/30 07:49:44;;;;;;;8.00;3.17;;;12.00;99.90;;;;;;5074091;28;20232;-58
2022/05/30 07:52:10;;;;;;;12.00;3.03;;;12.30;99.90;;;;;;5074591;28;20274;-58
2022/05/30 07:54:37;;;;;;;5.57;2.60;;;12.10;99.90;;;;;;5073613;28;20221;-61
2022/05/30 07:57:05;;;;;;;5.57;3.13;;;12.20;99.90;;;;;;5074016;28;20224;-59
2022/05/30 07:59:35;;;;;;;5.80;2.50;;;12.30;99.90;;;;;;5073970;28;20210;-60
2022/05/30 08:02:02;;;;;;;6.67;2.90;;;12.30;99.90;;;;;;5074449;28;20576;-59
2022/05/30 08:04:29;;;;;;;8.90;3.10;;;12.40;99.90;;;;;;5074137;28;20721;-61
2022/05/30 08:06:55;;;;;;;12.03;3.50;;;12.20;99.90;;;;;;5072932;28;20689;-60
2022/05/30 08:09:22;;;;;;;6.77;3.97;;;12.30;99.90;;;;;;5074295;28;20205;-60
2022/05/30 08:11:49;;;;;;;7.73;3.60;;;12.30;99.90;;;;;;5073332;28;20760;-59
2022/05/30 08:14:15;;;;;;;6.17;3.67;;;12.00;99.90;;;;;;5073737;28;20229;-59
2022/05/30 08:16:44;;;;;;;6.97;3.93;;;11.90;99.90;;;;;;5073488;28;20246;-62
2022/05/30 08:19:10;;;;;;;6.07;3.90;;;12.10;99.90;;;;;;5073848;28;20203;-62
2022/05/30 08:21:37;;;;;;;8.20;3.60;;;12.30;99.90;;;;;;5073288;28;20205;-60
2022/05/30 08:24:04;;;;;;;8.10;3.57;;;12.30;99.90;;;;;;5075662;28;20267;-61
2022/05/30 08:26:30;;;;;;;9.13;3.67;;;12.40;99.90;;;;;;5077271;28;20271;-60
2022/05/30 08:28:57;;;;;;;10.17;3.70;;;12.60;99.90;;;;;;5076186;28;20215;-61
2022/05/30 08:31:24;;;;;;;7.70;3.17;;;12.70;99.90;;;;;;5074834;28;20228;-61
2022/05/30 08:33:52;;;;;;;7.47;3.07;;;12.80;99.90;;;;;;5073392;28;20286;-60
2022/05/30 08:36:19;;;;;;;5.30;2.80;;;12.90;99.90;;;;;;5073064;28;20211;-60
2022/05/30 08:38:45;;;;;;;6.27;2.77;;;12.80;99.90;;;;;;5073600;28;20213;-59
2022/05/30 08:44:01;;;;;;;6.80;2.50;;;12.50;99.90;;;;;;5073651;28;20265;-59
2022/05/30 08:46:37;;;;;;;3.87;2.03;;;12.50;99.90;;;;;;5070125;28;20199;-60
2022/05/30 08:49:21;;;;;;;5.90;2.00;;;12.70;99.90;;;;;;5066425;28;20198;-57
2022/05/30 08:52:12;;;;;;;7.77;2.07;;;12.80;99.90;;;;;;5072768;28;20311;-62
2022/05/30 08:54:49;;;;;;;6.97;2.50;;;12.90;99.90;;;;;;5072740;28;20702;-60
2022/05/30 08:57:26;;;;;;;6.73;2.37;;;13.00;99.90;;;;;;5071998;28;20228;-60
2022/05/30 09:00:04;;;;;;;5.23;2.70;;;13.30;99.90;;;;;;5052780;28;20209;-61
2022/05/30 09:02:35;;;;;;;3.63;2.13;;;13.30;99.90;;;;;;5068263;28;20203;-61
2022/05/30 09:05:08;;;;;;;3.80;2.10;;;13.20;99.90;;;;;;5072379;28;20234;-63
2022/05/30 09:07:39;;;;;;;8.60;2.93;;;13.30;99.90;;;;;;5072300;28;20616;-58
2022/05/30 09:10:10;;;;;;;7.17;2.30;;;13.40;99.90;;;;;;5073202;28;20219;-62
2022/05/30 09:12:47;;;;;;;9.70;2.77;;;13.20;99.90;;;;;;5072355;28;20597;-61
2022/05/30 09:15:20;;;;;;;5.80;2.80;;;13.40;99.90;;;;;;5072378;28;20277;-65
2022/05/30 09:17:51;;;;;;;8.00;3.20;;;13.90;99.90;;;;;;5072572;28;20201;-63
2022/05/30 09:20:22;;;;;;;7.47;3.30;;;14.30;99.90;;;;;;5072289;28;20212;-64
2022/05/30 09:22:48;;;;;;;9.43;3.17;;;14.50;99.90;;;;;;5072475;28;20228;-62
2022/05/30 09:28:03;;;;;;;6.57;3.60;;;14.20;99.90;;;;;;5072390;28;20206;-62
2022/05/30 09:30:41;;;;;;;9.40;3.90;;;14.30;99.90;;;;;;5072533;28;20244;-62
2022/05/30 09:33:16;;;;;;;7.00;3.30;;;14.40;99.90;;;;;;5071753;28;20229;-66
2022/05/30 09:35:44;;;;;;;4.03;3.00;;;14.50;99.90;;;;;;5071987;28;20273;-65
2022/05/30 09:38:23;;;;;;;3.80;2.50;;;14.60;99.90;;;;;;5072723;28;20217;-66
2022/05/30 09:40:53;;;;;;;5.27;2.93;;;14.50;99.90;;;;;;5072647;28;20204;-66
2022/05/30 09:43:25;;;;;;;4.63;2.80;;;14.20;99.90;;;;;;5072192;28;20282;-65
2022/05/30 09:45:52;;;;;;;6.57;3.00;;;14.00;99.90;;;;;;5071907;28;20205;-61
2022/05/30 09:48:20;;;;;;;4.17;3.00;;;13.70;99.90;;;;;;5072518;28;20240;-62
2022/05/30 09:50:50;;;;;;;10.30;3.00;;;13.60;99.90;;;;;;5072893;28;20865;-62
2022/05/30 09:53:41;;;;;;;7.70;3.30;;;13.80;99.90;;;;;;5071674;28;20227;-61
2022/05/30 09:56:09;;;;;;;4.17;3.13;;;13.80;99.90;;;;;;5072085;28;20638;-62
2022/05/30 09:58:44;;;;;;;8.33;3.83;;;13.90;99.90;;;;;;5071955;28;20221;-61
2022/05/30 10:01:11;;;;;;;5.63;3.37;;;13.80;99.90;;;;;;5072294;28;20211;-64
2022/05/30 10:03:40;;;;;;;5.07;2.90;;;13.80;99.90;;;;;;5071588;28;20233;-60
2022/05/30 10:06:17;;;;;;;5.60;3.20;;;13.70;99.90;;;;;;5070944;28;20295;-63
2022/05/30 10:08:46;;;;;;;4.83;3.00;;;13.60;99.90;;;;;;5072473;28;20262;-64
2022/05/30 10:11:30;;;;;;;5.57;2.27;;;13.30;99.90;;;;;;5071473;28;20204;-63
2022/05/30 10:13:57;;;;;;;4.47;2.70;;;13.40;99.90;;;;;;5071763;28;20308;-63
2022/05/30 10:16:31;;;;;;;4.33;2.20;;;13.50;99.90;;;;;;5070589;28;20246;-63
2022/05/30 10:19:01;;;;;;;4.93;2.27;;;13.50;99.90;;;;;;5071730;28;20208;-61
2022/05/30 10:28:14;;;;;;;3.83;2.50;;;13.70;99.90;;;;;;5071533;28;20299;-62
2022/05/30 10:30:20;;;;;;;4.83;2.97;;;13.70;99.90;;;;;;5071435;28;20272;-62
2022/05/30 10:33:02;;;;;;;5.97;2.73;;;13.70;99.90;;;;;;5071144;28;20247;-62
2022/05/30 10:35:37;;;;;;;4.60;2.50;;;13.80;99.90;;;;;;5071089;28;20219;-64
2022/05/30 10:38:22;;;;;;;4.60;2.17;;;14.10;99.90;;;;;;5070544;28;20283;-62
2022/05/30 10:41:03;;;;;;;3.60;1.97;;;14.30;99.90;;;;;;5071440;28;20279;-63
2022/05/30 10:43:41;;;;;;;4.67;2.30;;;14.10;99.90;;;;;;5070624;28;20225;-62
2022/05/30 10:46:11;;;;;;;4.87;2.30;;;14.30;99.90;;;;;;5070187;28;20315;-62
2022/05/30 10:48:40;;;;;;;6.20;1.93;;;14.40;99.90;;;;;;5071213;28;20216;-63
2022/05/30 10:51:13;;;;;;;3.83;1.80;;;14.60;99.90;;;;;;5070580;28;20211;-63
2022/05/30 10:53:47;;;;;;;4.37;2.00;;;14.80;99.90;;;;;;5071010;28;20274;-63
2022/05/30 10:56:18;;;;;;;4.17;1.93;;;14.70;99.90;;;;;;5070169;28;20659;-62
2022/05/30 10:58:52;;;;;;;3.13;1.67;;;14.70;99.90;;;;;;5071003;28;20209;-63
2022/05/30 11:01:31;;;;;;;4.57;1.60;;;14.50;99.90;;;;;;5070756;28;20334;-64
2022/05/30 11:04:15;;;;;;;4.20;1.80;;;14.70;99.90;;;;;;5071189;28;20282;-63
2022/05/30 11:06:46;;;;;;;7.90;2.83;;;14.40;99.90;;;;;;5069701;28;20208;-62
2022/05/30 11:09:21;;;;;;;5.80;1.63;;;14.50;99.90;;;;;;5070476;28;20282;-62
2022/05/30 11:11:52;;;;;;;3.17;1.57;;;14.70;99.90;;;;;;5070699;28;20695;-63
2022/05/30 11:14:28;;;;;;;2.83;1.43;;;14.50;99.90;;;;;;5070128;28;20305;-63
2022/05/30 11:16:59;;;;;;;4.73;1.67;;;14.60;99.90;;;;;;5070368;28;20212;-63
2022/05/30 11:19:34;;;;;;;2.50;1.60;;;14.60;99.90;;;;;;5070243;28;20618;-63
2022/05/30 11:22:06;;;;;;;3.30;1.60;;;14.80;99.90;;;;;;5071077;28;20200;-60
2022/05/30 11:24:36;;;;;;;5.00;1.47;;;15.00;99.90;;;;;;5070218;28;20282;-62
2022/05/30 11:27:11;;;;;;;4.23;1.40;;;15.10;99.90;;;;;;5070013;28;20212;-61
2022/05/30 11:29:54;;;;;;;5.73;1.23;;;15.00;99.90;;;;;;5070200;28;20258;-62
2022/05/30 11:32:42;;;;;;;6.03;1.70;;;14.80;99.90;;;;;;5070146;28;20699;-64
2022/05/30 11:35:25;;;;;;;6.43;2.00;;;14.60;99.90;;;;;;5069999;28;20216;-64
2022/05/30 11:38:06;;;;;;;5.00;1.93;;;14.40;99.90;;;;;;5070394;28;20209;-64
2022/05/30 11:40:40;;;;;;;2.33;1.63;;;14.40;99.90;;;;;;5070003;28;20715;-64
2022/05/30 11:43:29;;;;;;;5.70;1.60;;;14.40;99.90;;;;;;5070480;28;20221;-61
2022/05/30 11:45:58;;;;;;;4.63;1.80;;;14.40;99.90;;;;;;5069801;28;20260;-61
2022/05/30 11:48:34;;;;;;;3.03;1.40;;;14.30;99.90;;;;;;5070267;28;20347;-61
2022/05/30 11:51:09;;;;;;;2.90;1.43;;;14.20;99.90;;;;;;5070197;28;20208;-61
2022/05/30 11:54:18;;;;;;;2.10;1.60;;;14.20;99.90;;;;;;5069867;28;20634;-61
2022/05/30 11:56:55;;;;;;;3.87;1.60;;;14.40;99.90;;;;;;5055256;28;20254;-60
2022/05/30 11:59:38;;;;;;;3.23;1.40;;;14.50;99.90;;;;;;5073735;28;20678;-62
2022/05/30 12:02:13;;;;;;;4.67;1.70;;;14.30;99.90;;;;;;5074366;28;20201;-62
2022/05/30 12:05:20;;;;;;;4.47;1.60;;;14.30;99.90;;;;;;5073689;28;20231;-62
2022/05/30 12:07:59;;;;;;;2.33;1.47;;;14.40;99.90;;;;;;5048960;28;20639;-59
2022/05/30 12:10:39;;;;;;;4.40;1.70;;;14.50;99.90;;;;;;5075449;28;20209;-61
2022/05/30 12:13:25;;;;;;;4.60;1.50;;;14.80;99.90;;;;;;5074742;28;20236;-65
2022/05/30 12:16:08;;;;;;;4.67;1.80;;;15.10;99.90;;;;;;5074193;28;20262;-64
2022/05/30 12:24:37;;;;;;;2.77;1.63;;;15.20;99.90;;;;;;5062335;28;20269;-61
2022/05/30 12:27:08;;;;;;;4.67;1.60;;;15.30;99.90;;;;;;5072949;28;20300;-66
2022/05/30 12:29:52;;;;;;;3.37;1.63;;;15.50;99.90;;;;;;5073896;28;20221;-64
2022/05/30 12:32:38;;;;;;;3.40;1.63;;;14.80;99.90;;;;;;5073436;28;20702;-64
2022/05/30 12:35:23;;;;;;;4.30;1.90;;;14.50;99.90;;;;;;5074089;28;20213;-62
2022/05/30 12:37:52;;;;;;;4.27;1.87;;;14.30;99.90;;;;;;5073548;28;20204;-62
2022/05/30 12:40:35;;;;;;;41.27;21.17;;;14.60;99.90;;;;;;5074923;28;20600;-61
2022/05/30 12:43:06;;;;;;;5.63;2.33;;;14.90;99.90;;;;;;5073528;28;20221;-60
2022/05/30 12:45:40;;;;;;;5.63;2.03;;;15.10;99.90;;;;;;5073537;28;20201;-59
2022/05/30 12:48:17;;;;;;;4.40;1.70;;;15.30;99.90;;;;;;5072936;28;20726;-61
2022/05/30 12:50:59;;;;;;;3.60;1.73;;;15.20;99.90;;;;;;5073037;28;20744;-58
2022/05/30 12:54:01;;;;;;;4.93;1.80;;;15.30;99.90;;;;;;5072810;28;20233;-60
2022/05/30 12:57:15;;;;;;;2.47;1.67;;;15.50;99.90;;;;;;5072230;28;20208;-57
2022/05/30 13:00:04;;;;;;;4.10;1.73;;;15.70;99.90;;;;;;5025082;28;20208;-58
2022/05/30 13:03:10;;;;;;;3.70;1.70;;;16.00;99.90;;;;;;5072753;28;20296;-56
2022/05/30 13:05:47;;;;;;;5.70;2.00;;;16.10;99.90;;;;;;5072202;28;20420;-57
2022/05/30 13:09:05;;;;;;;4.17;2.03;;;16.10;99.90;;;;;;5071347;28;20615;-58
2022/05/30 13:12:11;;;;;;;7.23;2.10;;;15.90;99.90;;;;;;5072468;28;20208;-57
2022/05/30 13:15:11;;;;;;;4.83;2.60;;;15.90;99.90;;;;;;5057759;28;20241;-57
2022/05/30 13:17:50;;;;;;;6.90;2.47;;;15.90;99.90;;;;;;5071659;28;20824;-58
2022/05/30 13:20:20;;;;;;;2.40;1.90;;;15.90;99.90;;;;;;5059037;28;20255;-59
2022/05/30 13:22:52;;;;;;;5.07;2.10;;;15.70;99.90;;;;;;5072286;28;20622;-58
2022/05/30 13:25:21;;;;;;;3.40;2.07;;;15.90;99.90;;;;;;5072652;28;20201;-59
2022/05/30 13:27:49;;;;;;;5.07;2.40;;;16.00;99.90;;;;;;5071746;28;20231;-60
2022/05/30 13:30:21;;;;;;;2.83;2.10;;;15.90;99.90;;;;;;5072455;28;20204;-60
2022/05/30 13:32:50;;;;;;;4.03;2.60;;;15.40;99.90;;;;;;5072309;28;20236;-59
2022/05/30 13:35:19;;;;;;;7.17;2.47;;;15.40;99.90;;;;;;5070597;28;20287;-59
2022/05/30 13:37:52;;;;;;;3.87;2.40;;;15.40;99.90;;;;;;5071529;28;20213;-59
2022/05/30 13:40:25;;;;;;;4.30;3.00;;;15.60;99.90;;;;;;5072130;28;20201;-59
2022/05/30 13:42:53;;;;;;;4.80;2.57;;;15.80;99.90;;;;;;5072472;28;20759;-59
2022/05/30 13:45:23;;;;;;;5.23;2.83;;;15.90;99.90;;;;;;5071442;28;20254;-59